Ifestos I — SV4139 — position and weather

sailwx.info

Track history (hours):
 
Tides and Currents Weather Stations Pressure Air Temp Water Temp Dewpoint Dewpoint Depression Visibility Wind Speed Wind Dir Waves Ship Positions

Ifestos I

Last reported at 2015-Aug-28 14:33 UTC. Time now 2015-Aug-28 14:50 UTC.
Position N 38°00' E 023°33'.

Length 30 m.

Type: Tug. MMSI: 237070500.

Date/timePositionNaut miles runAvg speedWind from/ knotsBaromVisibWave heightAir tempDewpointWater temp
2015-Aug-28 14:33N 38°00' E 023°33'2 2.0
2015-Aug-28 13:33N 38°01' E 023°35'0 0.0
2015-Aug-28 12:33N 38°01' E 023°35'0 0.0
2015-Aug-28 11:33N 38°01' E 023°35'0 0.4
2015-Aug-28 10:32N 38°01' E 023°35'0 0.5
2015-Aug-28 09:33N 38°01' E 023°35'0 0.0
2015-Aug-28 08:33N 38°01' E 023°35'0 0.0
2015-Aug-28 07:33N 38°01' E 023°35'3 2.5
2015-Aug-28 06:33N 37°60' E 023°33'4 3.6
2015-Aug-28 05:33N 37°57' E 023°37'0 0.0
2015-Aug-28 04:34N 37°57' E 023°37'0 0.0
2015-Aug-28 03:33N 37°57' E 023°37'0 0.0
2015-Aug-28 02:33N 37°57' E 023°37'0 0.0
2015-Aug-26 11:20N 37°57' E 023°37'0 0.6
2015-Aug-26 10:33N 37°57' E 023°36'0 0.4
2015-Aug-26 09:33N 37°57' E 023°37'0 0.0
2015-Aug-26 08:33N 37°57' E 023°37'0 0.0
2015-Aug-26 05:33N 37°57' E 023°37'1 1.0
2015-Aug-26 04:33N 37°57' E 023°35'1 1.0
2015-Aug-26 03:33N 37°57' E 023°37'0 0.0
2015-Aug-26 02:33N 37°57' E 023°37'0 0.0
2015-Aug-25 16:33N 37°57' E 023°37'3 3.3
2015-Aug-25 15:33N 37°59' E 023°33'3 2.5
2015-Aug-25 14:33N 38°01' E 023°32'1 1.1
2015-Aug-25 13:34N 38°02' E 023°30'0 0.2
2015-Aug-25 11:24N 38°02' E 023°31'0 0.0
2015-Aug-25 10:32N 38°02' E 023°31'0 0.0
2015-Aug-25 09:24N 38°02' E 023°31'0 0.0
2015-Aug-25 08:32N 38°02' E 023°31'0 0.0
2015-Aug-25 07:32N 38°02' E 023°31'0 0.0
2015-Aug-25 06:32N 38°02' E 023°31'0 0.0
2015-Aug-25 05:33N 38°02' E 023°31'0 0.0
2015-Aug-25 04:32N 38°02' E 023°31'0 0.0
2015-Aug-25 03:32N 38°02' E 023°31'0 0.0
2015-Aug-25 02:19N 38°02' E 023°31'0 0.0
2015-Aug-25 01:24N 38°02' E 023°31'0 0.0
2015-Aug-25 00:32N 38°02' E 023°31'0 0.0
2015-Aug-24 23:33N 38°02' E 023°31'0 0.0
2015-Aug-24 22:32N 38°02' E 023°31'0 0.0
2015-Aug-24 21:33N 38°02' E 023°31'0 0.0
2015-Aug-24 20:14N 38°02' E 023°31'0 0.0
2015-Aug-24 19:33N 38°02' E 023°31'0 0.0
2015-Aug-24 18:32N 38°02' E 023°31'0 0.0
2015-Aug-24 17:31N 38°02' E 023°31'0 0.0
2015-Aug-24 16:33N 38°02' E 023°31'0 0.0
2015-Aug-24 15:26N 38°02' E 023°31'0 0.0
2015-Aug-24 14:23N 38°02' E 023°31'0 0.0
2015-Aug-24 12:28N 38°02' E 023°31'0 0.0
2015-Aug-24 10:21N 38°02' E 023°31'0 0.4
2015-Aug-24 09:33N 38°02' E 023°31'2 1.8
2015-Aug-24 08:33N 38°01' E 023°32'1 1.1
2015-Aug-24 07:32N 38°00' E 023°33'3 3.1
2015-Aug-24 06:33N 37°57' E 023°35'2 1.6
2015-Aug-24 05:33N 37°56' E 023°36'1 1.2
2015-Aug-24 04:33N 37°57' E 023°36'0 0.3
2015-Aug-24 03:34N 37°57' E 023°36'0 0.4
2015-Aug-24 02:33N 37°57' E 023°37'0 0.0
2015-Aug-24 01:33N 37°57' E 023°37'0 0.0
2015-Aug-24 00:33N 37°57' E 023°37'0 0.0
2015-Aug-23 23:33N 37°57' E 023°37'3 3.2
2015-Aug-23 22:33N 37°59' E 023°33'3 3.3
2015-Aug-23 21:33N 38°01' E 023°35'0 0.2
2015-Aug-23 20:33N 38°01' E 023°35'2 1.7
2015-Aug-23 19:33N 38°01' E 023°34'2 1.7
2015-Aug-23 18:33N 38°02' E 023°35'0 0.1
2015-Aug-23 17:33N 38°01' E 023°35'4 4.1
2015-Aug-23 16:33N 37°57' E 023°37'0 0.0
2015-Aug-23 15:33N 37°57' E 023°37'0 0.4
2015-Aug-23 14:33N 37°57' E 023°36'0 0.3
2015-Aug-23 13:33N 37°57' E 023°36'1 0.7
2015-Aug-23 12:33N 37°57' E 023°36'1 1.0
2015-Aug-23 11:33N 37°57' E 023°37'0 0.0
2015-Aug-23 10:34N 37°57' E 023°37'0 0.0
2015-Aug-23 01:04N 37°57' E 023°37'0 0.0
2015-Aug-23 00:33N 37°57' E 023°37'0 0.0
2015-Aug-22 23:33N 37°57' E 023°37'0 0.0
2015-Aug-22 22:33N 37°57' E 023°37'0 0.0
2015-Aug-22 21:33N 37°57' E 023°37'0 0.0
2015-Aug-22 20:33N 37°57' E 023°37'1 1.4
2015-Aug-22 19:33N 37°56' E 023°38'0 0.1
2015-Aug-22 18:33N 37°56' E 023°38'0 0.4
2015-Aug-22 17:33N 37°56' E 023°38'1 0.7
2015-Aug-22 16:33N 37°56' E 023°37'0 0.0
2015-Aug-22 15:33N 37°56' E 023°37'1 0.7
2015-Aug-22 14:33N 37°56' E 023°38'0 0.0
2015-Aug-22 13:33N 37°56' E 023°38'0 0.0
2015-Aug-22 12:33N 37°56' E 023°38'2 1.6
2015-Aug-22 11:33N 37°57' E 023°37'0 0.0
2015-Aug-22 10:33N 37°57' E 023°37'0 0.0
2015-Aug-21 21:33N 37°57' E 023°37'1 1.1
2015-Aug-21 20:33N 37°57' E 023°35'0 0.4
2015-Aug-21 19:33N 37°57' E 023°36'1 0.7
2015-Aug-21 18:33N 37°57' E 023°37'0 0.4
2015-Aug-21 17:33N 37°57' E 023°36'0 0.4
2015-Aug-21 16:33N 37°57' E 023°37'0 0.0
2015-Aug-21 15:33N 37°57' E 023°37'1 1.4
2015-Aug-21 14:33N 37°56' E 023°36'2 1.7
2015-Aug-21 13:33N 37°57' E 023°35'1 1.3
2015-Aug-21 12:33N 37°57' E 023°37'1 1.2
2015-Aug-21 11:33N 37°56' E 023°36'1 1.2
2015-Aug-21 10:33N 37°57' E 023°37'0 0.0
2015-Aug-21 03:27N 37°57' E 023°37'0 0.0
2015-Aug-21 02:33N 37°57' E 023°37'0 0.0
2015-Aug-21 01:33N 37°57' E 023°37'0 0.0
2015-Aug-21 00:33N 37°57' E 023°37'7 6.7
2015-Aug-20 23:33N 38°02' E 023°31'0 0.1
2015-Aug-20 22:33N 38°02' E 023°31'0 0.0
2015-Aug-20 21:33N 38°02' E 023°31'0 0.0
2015-Aug-20 20:33N 38°02' E 023°31'0 0.0
2015-Aug-20 19:33N 38°02' E 023°31'0 0.0
2015-Aug-20 18:33N 38°02' E 023°31'0 0.0
2015-Aug-20 17:33N 38°02' E 023°31'0 0.3
2015-Aug-20 16:33N 38°02' E 023°30'1 1.5
2015-Aug-20 15:33N 38°01' E 023°32'1 0.6
2015-Aug-20 14:33N 38°01' E 023°31'3 3.4
2015-Aug-20 13:33N 37°58' E 023°33'3 3.1
2015-Aug-20 12:33N 37°57' E 023°37'0 0.0
2015-Aug-20 11:33N 37°57' E 023°37'0 0.0
2015-Aug-20 10:33N 37°57' E 023°37'0 0.0
2015-Aug-19 23:03N 37°57' E 023°37'0 0.0
2015-Aug-19 22:34N 37°57' E 023°37'0 0.0
2015-Aug-19 21:34N 37°57' E 023°37'1 1.3
2015-Aug-19 20:33N 37°57' E 023°35'1 0.5
2015-Aug-19 19:34N 37°57' E 023°35'1 1.1
2015-Aug-19 18:33N 37°57' E 023°37'0 0.0
2015-Aug-19 17:34N 37°57' E 023°37'3 2.9
2015-Aug-19 16:34N 37°58' E 023°33'5 4.5
2015-Aug-19 15:33N 38°02' E 023°31'5 5.5
2015-Aug-19 14:33N 37°57' E 023°34'2 1.9
2015-Aug-19 13:33N 37°57' E 023°37'0 0.5
2015-Aug-19 12:34N 37°57' E 023°36'0 0.3
2015-Aug-19 11:34N 37°57' E 023°36'1 0.8
2015-Aug-19 10:33N 37°57' E 023°37'0 0.0
2015-Aug-18 20:20N 37°57' E 023°37'0 0.0
2015-Aug-18 19:33N 37°57' E 023°37'1 0.7
2015-Aug-18 18:33N 37°57' E 023°36'1 0.7
2015-Aug-18 17:34N 37°57' E 023°37'1 0.6
2015-Aug-18 16:34N 37°57' E 023°36'2 1.5
2015-Aug-18 15:34N 37°56' E 023°37'0 0.1
2015-Aug-18 14:33N 37°56' E 023°37'  
Track history (hours):
 
Tides and Currents Weather Stations Pressure Air Temp Water Temp Dewpoint Dewpoint Depression Visibility Wind Speed Wind Dir Waves Ship Positions

Ifestos I

Last reported at 2015-Aug-28 14:33 UTC. Time now 2015-Aug-28 14:50 UTC.
Position N 38°00' E 023°33'.

Length 30 m.

Type: Tug. MMSI: 237070500.

Date/timePositionNaut miles runAvg speedWind from/ knotsBaromVisibWave heightAir tempDewpointWater temp
2015-Aug-28 14:33N 38°00' E 023°33'2 2.0
2015-Aug-28 13:33N 38°01' E 023°35'0 0.0
2015-Aug-28 12:33N 38°01' E 023°35'0 0.0
2015-Aug-28 11:33N 38°01' E 023°35'0 0.4
2015-Aug-28 10:32N 38°01' E 023°35'0 0.5
2015-Aug-28 09:33N 38°01' E 023°35'0 0.0
2015-Aug-28 08:33N 38°01' E 023°35'0 0.0
2015-Aug-28 07:33N 38°01' E 023°35'3 2.5
2015-Aug-28 06:33N 37°60' E 023°33'4 3.6
2015-Aug-28 05:33N 37°57' E 023°37'0 0.0
2015-Aug-28 04:34N 37°57' E 023°37'0 0.0
2015-Aug-28 03:33N 37°57' E 023°37'0 0.0
2015-Aug-28 02:33N 37°57' E 023°37'0 0.0
2015-Aug-26 11:20N 37°57' E 023°37'0 0.6
2015-Aug-26 10:33N 37°57' E 023°36'0 0.4
2015-Aug-26 09:33N 37°57' E 023°37'0 0.0
2015-Aug-26 08:33N 37°57' E 023°37'0 0.0
2015-Aug-26 05:33N 37°57' E 023°37'1 1.0
2015-Aug-26 04:33N 37°57' E 023°35'1 1.0
2015-Aug-26 03:33N 37°57' E 023°37'0 0.0
2015-Aug-26 02:33N 37°57' E 023°37'0 0.0
2015-Aug-25 16:33N 37°57' E 023°37'3 3.3
2015-Aug-25 15:33N 37°59' E 023°33'3 2.5
2015-Aug-25 14:33N 38°01' E 023°32'1 1.1
2015-Aug-25 13:34N 38°02' E 023°30'0 0.2
2015-Aug-25 11:24N 38°02' E 023°31'0 0.0
2015-Aug-25 10:32N 38°02' E 023°31'0 0.0
2015-Aug-25 09:24N 38°02' E 023°31'0 0.0
2015-Aug-25 08:32N 38°02' E 023°31'0 0.0
2015-Aug-25 07:32N 38°02' E 023°31'0 0.0
2015-Aug-25 06:32N 38°02' E 023°31'0 0.0
2015-Aug-25 05:33N 38°02' E 023°31'0 0.0
2015-Aug-25 04:32N 38°02' E 023°31'0 0.0
2015-Aug-25 03:32N 38°02' E 023°31'0 0.0
2015-Aug-25 02:19N 38°02' E 023°31'0 0.0
2015-Aug-25 01:24N 38°02' E 023°31'0 0.0
2015-Aug-25 00:32N 38°02' E 023°31'0 0.0
2015-Aug-24 23:33N 38°02' E 023°31'0 0.0
2015-Aug-24 22:32N 38°02' E 023°31'0 0.0
2015-Aug-24 21:33N 38°02' E 023°31'0 0.0
2015-Aug-24 20:14N 38°02' E 023°31'0 0.0
2015-Aug-24 19:33N 38°02' E 023°31'0 0.0
2015-Aug-24 18:32N 38°02' E 023°31'0 0.0
2015-Aug-24 17:31N 38°02' E 023°31'0 0.0
2015-Aug-24 16:33N 38°02' E 023°31'0 0.0
2015-Aug-24 15:26N 38°02' E 023°31'0 0.0
2015-Aug-24 14:23N 38°02' E 023°31'0 0.0
2015-Aug-24 12:28N 38°02' E 023°31'0 0.0
2015-Aug-24 10:21N 38°02' E 023°31'0 0.4
2015-Aug-24 09:33N 38°02' E 023°31'2 1.8
2015-Aug-24 08:33N 38°01' E 023°32'1 1.1
2015-Aug-24 07:32N 38°00' E 023°33'3 3.1
2015-Aug-24 06:33N 37°57' E 023°35'2 1.6
2015-Aug-24 05:33N 37°56' E 023°36'1 1.2
2015-Aug-24 04:33N 37°57' E 023°36'0 0.3
2015-Aug-24 03:34N 37°57' E 023°36'0 0.4
2015-Aug-24 02:33N 37°57' E 023°37'0 0.0
2015-Aug-24 01:33N 37°57' E 023°37'0 0.0
2015-Aug-24 00:33N 37°57' E 023°37'0 0.0
2015-Aug-23 23:33N 37°57' E 023°37'3 3.2
2015-Aug-23 22:33N 37°59' E 023°33'3 3.3
2015-Aug-23 21:33N 38°01' E 023°35'0 0.2
2015-Aug-23 20:33N 38°01' E 023°35'2 1.7
2015-Aug-23 19:33N 38°01' E 023°34'2 1.7
2015-Aug-23 18:33N 38°02' E 023°35'0 0.1
2015-Aug-23 17:33N 38°01' E 023°35'4 4.1
2015-Aug-23 16:33N 37°57' E 023°37'0 0.0
2015-Aug-23 15:33N 37°57' E 023°37'0 0.4
2015-Aug-23 14:33N 37°57' E 023°36'0 0.3
2015-Aug-23 13:33N 37°57' E 023°36'1 0.7
2015-Aug-23 12:33N 37°57' E 023°36'1 1.0
2015-Aug-23 11:33N 37°57' E 023°37'0 0.0
2015-Aug-23 10:34N 37°57' E 023°37'0 0.0
2015-Aug-23 01:04N 37°57' E 023°37'0 0.0
2015-Aug-23 00:33N 37°57' E 023°37'0 0.0
2015-Aug-22 23:33N 37°57' E 023°37'0 0.0
2015-Aug-22 22:33N 37°57' E 023°37'0 0.0
2015-Aug-22 21:33N 37°57' E 023°37'0 0.0
2015-Aug-22 20:33N 37°57' E 023°37'1 1.4
2015-Aug-22 19:33N 37°56' E 023°38'0 0.1
2015-Aug-22 18:33N 37°56' E 023°38'0 0.4
2015-Aug-22 17:33N 37°56' E 023°38'1 0.7
2015-Aug-22 16:33N 37°56' E 023°37'0 0.0
2015-Aug-22 15:33N 37°56' E 023°37'1 0.7
2015-Aug-22 14:33N 37°56' E 023°38'0 0.0
2015-Aug-22 13:33N 37°56' E 023°38'0 0.0
2015-Aug-22 12:33N 37°56' E 023°38'2 1.6
2015-Aug-22 11:33N 37°57' E 023°37'0 0.0
2015-Aug-22 10:33N 37°57' E 023°37'0 0.0
2015-Aug-21 21:33N 37°57' E 023°37'1 1.1
2015-Aug-21 20:33N 37°57' E 023°35'0 0.4
2015-Aug-21 19:33N 37°57' E 023°36'1 0.7
2015-Aug-21 18:33N 37°57' E 023°37'0 0.4
2015-Aug-21 17:33N 37°57' E 023°36'0 0.4
2015-Aug-21 16:33N 37°57' E 023°37'0 0.0
2015-Aug-21 15:33N 37°57' E 023°37'1 1.4
2015-Aug-21 14:33N 37°56' E 023°36'2 1.7
2015-Aug-21 13:33N 37°57' E 023°35'1 1.3
2015-Aug-21 12:33N 37°57' E 023°37'1 1.2
2015-Aug-21 11:33N 37°56' E 023°36'1 1.2
2015-Aug-21 10:33N 37°57' E 023°37'0 0.0
2015-Aug-21 03:27N 37°57' E 023°37'0 0.0
2015-Aug-21 02:33N 37°57' E 023°37'0 0.0
2015-Aug-21 01:33N 37°57' E 023°37'0 0.0
2015-Aug-21 00:33N 37°57' E 023°37'7 6.7
2015-Aug-20 23:33N 38°02' E 023°31'0 0.1
2015-Aug-20 22:33N 38°02' E 023°31'0 0.0
2015-Aug-20 21:33N 38°02' E 023°31'0 0.0
2015-Aug-20 20:33N 38°02' E 023°31'0 0.0
2015-Aug-20 19:33N 38°02' E 023°31'0 0.0
2015-Aug-20 18:33N 38°02' E 023°31'0 0.0
2015-Aug-20 17:33N 38°02' E 023°31'0 0.3
2015-Aug-20 16:33N 38°02' E 023°30'1 1.5
2015-Aug-20 15:33N 38°01' E 023°32'1 0.6
2015-Aug-20 14:33N 38°01' E 023°31'3 3.4
2015-Aug-20 13:33N 37°58' E 023°33'3 3.1
2015-Aug-20 12:33N 37°57' E 023°37'0 0.0
2015-Aug-20 11:33N 37°57' E 023°37'0 0.0
2015-Aug-20 10:33N 37°57' E 023°37'0 0.0
2015-Aug-19 23:03N 37°57' E 023°37'0 0.0
2015-Aug-19 22:34N 37°57' E 023°37'0 0.0
2015-Aug-19 21:34N 37°57' E 023°37'1 1.3
2015-Aug-19 20:33N 37°57' E 023°35'1 0.5
2015-Aug-19 19:34N 37°57' E 023°35'1 1.1
2015-Aug-19 18:33N 37°57' E 023°37'0 0.0
2015-Aug-19 17:34N 37°57' E 023°37'3 2.9
2015-Aug-19 16:34N 37°58' E 023°33'5 4.5
2015-Aug-19 15:33N 38°02' E 023°31'5 5.5
2015-Aug-19 14:33N 37°57' E 023°34'2 1.9
2015-Aug-19 13:33N 37°57' E 023°37'0 0.5
2015-Aug-19 12:34N 37°57' E 023°36'0 0.3
2015-Aug-19 11:34N 37°57' E 023°36'1 0.8
2015-Aug-19 10:33N 37°57' E 023°37'0 0.0
2015-Aug-18 20:20N 37°57' E 023°37'0 0.0
2015-Aug-18 19:33N 37°57' E 023°37'1 0.7
2015-Aug-18 18:33N 37°57' E 023°36'1 0.7
2015-Aug-18 17:34N 37°57' E 023°37'1 0.6
2015-Aug-18 16:34N 37°57' E 023°36'2 1.5
2015-Aug-18 15:34N 37°56' E 023°37'0 0.1
2015-Aug-18 14:33N 37°56' E 023°37'  

Dump ship's entire track history